Time;durP1;ratioP1;P1;durP2;ratioP2;P2;SDS_P1;SDS_P2;PMS_P1;PMS_P2;Temp;Humidity;BMP_temperature;BMP_pressure;BME280_temperature;BME280_humidity;BME280_pressure;Samples;Min_cycle;Max_cycle;Signal;HPM_P1;HPM_P2
2021/05/01 04:10:40;;;;;;;0.60;0.60;;;11.40;99.90;;;;;;5864545;23;20231;-73
2021/05/01 04:13:07;;;;;;;0.60;0.60;;;11.40;99.90;;;;;;5005178;28;20216;-73
2021/05/01 04:15:34;;;;;;;0.60;0.60;;;11.50;99.90;;;;;;5000525;28;20254;-73
2021/05/01 04:18:01;;;;;;;0.60;0.60;;;11.50;99.90;;;;;;4993157;28;20212;-73
2021/05/01 04:20:28;;;;;;;0.70;0.70;;;11.40;99.90;;;;;;4990611;28;20204;-74
2021/05/01 04:22:55;;;;;;;0.60;0.60;;;11.40;99.90;;;;;;4973458;28;20205;-73
2021/05/01 04:25:22;;;;;;;0.70;0.70;;;11.50;99.90;;;;;;4973210;28;20212;-73
2021/05/01 04:27:49;;;;;;;0.60;0.60;;;11.50;99.90;;;;;;4973326;28;20263;-73
2021/05/01 04:30:17;;;;;;;0.70;0.70;;;11.60;99.90;;;;;;4973067;28;20208;-74
2021/05/01 04:32:44;;;;;;;0.63;0.63;;;11.60;99.90;;;;;;4972126;28;20221;-74
2021/05/01 04:35:11;;;;;;;0.60;0.60;;;11.60;99.90;;;;;;4981141;28;20257;-73
2021/05/01 04:37:38;;;;;;;0.60;0.60;;;11.60;99.90;;;;;;4991973;28;20208;-74
2021/05/01 04:40:06;;;;;;;0.70;0.70;;;11.60;99.90;;;;;;4992294;28;20266;-75
2021/05/01 04:42:35;;;;;;;0.80;0.80;;;11.60;99.90;;;;;;4992453;28;20226;-74
2021/05/01 04:45:04;;;;;;;0.60;0.60;;;11.60;99.90;;;;;;4992327;28;20212;-74
2021/05/01 04:47:31;;;;;;;0.50;0.50;;;11.70;99.90;;;;;;4992050;28;20204;-74
2021/05/01 04:49:58;;;;;;;0.68;0.68;;;11.70;99.90;;;;;;4992081;28;20211;-74
2021/05/01 04:52:25;;;;;;;0.60;0.60;;;11.70;99.90;;;;;;4991849;28;20274;-74
2021/05/01 04:54:52;;;;;;;0.60;0.60;;;11.80;99.90;;;;;;4991895;28;20238;-73
2021/05/01 04:57:19;;;;;;;0.60;0.60;;;11.70;99.90;;;;;;4991755;28;20265;-73
2021/05/01 04:59:46;;;;;;;0.60;0.60;;;11.80;99.90;;;;;;4992063;28;20204;-74
2021/05/01 05:02:13;;;;;;;0.60;0.60;;;11.90;99.90;;;;;;4992349;28;20224;-74
2021/05/01 05:04:40;;;;;;;0.60;0.60;;;11.80;99.90;;;;;;4991487;28;20564;-73
2021/05/01 05:07:07;;;;;;;0.70;0.70;;;11.80;99.90;;;;;;4991831;28;20823;-74
2021/05/01 05:09:35;;;;;;;0.80;0.80;;;11.80;99.90;;;;;;4991625;28;20676;-73
2021/05/01 05:12:02;;;;;;;0.57;0.57;;;11.60;99.90;;;;;;4991203;28;20302;-74
2021/05/01 05:14:29;;;;;;;0.60;0.60;;;11.50;99.90;;;;;;4991666;28;20270;-74
2021/05/01 05:16:56;;;;;;;0.60;0.60;;;11.50;99.90;;;;;;4991704;28;20262;-74
2021/05/01 05:19:23;;;;;;;0.60;0.60;;;11.50;99.90;;;;;;4992208;28;20215;-74
2021/05/01 05:21:50;;;;;;;0.60;0.60;;;11.60;99.90;;;;;;4991250;28;20233;-74
2021/05/01 05:24:17;;;;;;;0.60;0.60;;;11.70;99.90;;;;;;4991354;28;20204;-74
2021/05/01 05:26:44;;;;;;;0.68;0.68;;;11.80;99.90;;;;;;4991487;28;20278;-73
2021/05/01 05:29:12;;;;;;;0.60;0.60;;;11.80;99.90;;;;;;4991737;28;20212;-74
2021/05/01 05:31:39;;;;;;;0.70;0.70;;;11.50;99.90;;;;;;4991790;28;20643;-74
2021/05/01 05:34:06;;;;;;;0.70;0.70;;;11.40;99.90;;;;;;4991259;28;20230;-74
2021/05/01 05:36:34;;;;;;;0.60;0.60;;;11.30;99.90;;;;;;4991931;28;20207;-74
2021/05/01 05:39:02;;;;;;;0.60;0.60;;;11.50;99.90;;;;;;4991934;28;20211;-74
2021/05/01 05:41:29;;;;;;;0.70;0.70;;;11.60;99.90;;;;;;4992375;28;20224;-74
2021/05/01 05:43:56;;;;;;;0.60;0.60;;;11.70;99.90;;;;;;4994988;28;20203;-74
2021/05/01 05:46:23;;;;;;;0.73;0.73;;;11.60;99.90;;;;;;4995270;28;20208;-74
2021/05/01 05:48:50;;;;;;;0.80;0.80;;;11.60;99.90;;;;;;4995314;28;20212;-73
2021/05/01 05:51:17;;;;;;;0.60;0.60;;;11.60;99.90;;;;;;4995873;28;20227;-73
2021/05/01 05:53:47;;;;;;;0.70;0.70;;;11.70;99.90;;;;;;4995166;28;20630;-75
2021/05/01 05:56:15;;;;;;;0.70;0.70;;;11.50;99.90;;;;;;4984239;28;20649;-74
2021/05/01 05:58:42;;;;;;;0.70;0.70;;;11.40;99.90;;;;;;4975715;28;20216;-74
2021/05/01 06:01:10;;;;;;;0.60;0.60;;;11.50;99.90;;;;;;4975883;28;20312;-74
2021/05/01 06:03:39;;;;;;;0.60;0.60;;;11.70;99.90;;;;;;4974811;28;20255;-73
2021/05/01 06:06:11;;;;;;;0.65;0.65;;;11.80;99.90;;;;;;4978718;28;20255;-74
2021/05/01 06:08:39;;;;;;;0.60;0.60;;;11.90;99.90;;;;;;4988348;28;20200;-74
2021/05/01 06:11:09;;;;;;;0.63;0.63;;;11.70;99.90;;;;;;4976135;28;20237;-73
2021/05/01 06:13:38;;;;;;;0.60;0.60;;;11.40;99.90;;;;;;4976463;28;20596;-71
2021/05/01 06:16:06;;;;;;;0.60;0.60;;;11.90;99.90;;;;;;4976181;28;20208;-74
2021/05/01 06:18:35;;;;;;;0.70;0.70;;;12.00;99.90;;;;;;4976147;28;20251;-75
2021/05/01 06:21:02;;;;;;;0.60;0.60;;;12.20;99.90;;;;;;4976586;28;20229;-74
2021/05/01 06:23:30;;;;;;;0.60;0.60;;;12.30;99.90;;;;;;4976904;28;20204;-73
2021/05/01 06:25:57;;;;;;;0.60;0.60;;;12.30;99.90;;;;;;4975851;28;20255;-73
2021/05/01 06:28:27;;;;;;;0.60;0.60;;;12.60;99.90;;;;;;4975991;28;20205;-74
2021/05/01 06:30:54;;;;;;;0.50;0.50;;;12.80;99.90;;;;;;4976457;28;20251;-73
2021/05/01 06:33:23;;;;;;;0.60;0.60;;;12.70;99.90;;;;;;4976433;28;20306;-73
2021/05/01 06:35:50;;;;;;;0.60;0.60;;;12.80;99.90;;;;;;4976221;28;20263;-73
2021/05/01 06:38:17;;;;;;;0.50;0.50;;;12.80;99.90;;;;;;4975910;28;20267;-75
2021/05/01 06:40:46;;;;;;;0.60;0.60;;;12.90;99.90;;;;;;4976403;28;20233;-74
2021/05/01 06:43:23;;;;;;;0.73;0.73;;;12.60;99.90;;;;;;4976284;28;20247;-73
2021/05/01 06:45:52;;;;;;;0.68;0.68;;;12.90;99.90;;;;;;4975984;28;20212;-74
2021/05/01 06:48:25;;;;;;;0.60;0.60;;;13.10;99.90;;;;;;4989454;28;20727;-74
2021/05/01 06:50:54;;;;;;;0.70;0.70;;;13.10;99.90;;;;;;4975390;28;20290;-74
2021/05/01 06:53:29;;;;;;;0.60;0.60;;;12.70;99.90;;;;;;4975437;28;20232;-74
2021/05/01 06:56:01;;;;;;;0.50;0.50;;;13.20;99.90;;;;;;4975466;28;20208;-74
2021/05/01 06:58:30;;;;;;;0.50;0.50;;;13.60;99.90;;;;;;4975178;28;20213;-74
2021/05/01 07:01:03;;;;;;;0.50;0.50;;;14.00;99.90;;;;;;4975387;28;20232;-74
2021/05/01 07:03:34;;;;;;;0.57;0.57;;;14.00;99.40;;;;;;4975574;28;20756;-74
2021/05/01 07:06:02;;;;;;;0.50;0.50;;;14.20;98.40;;;;;;4975317;28;20235;-74
2021/05/01 07:08:29;;;;;;;0.50;0.50;;;14.30;97.40;;;;;;4975551;28;20212;-73
2021/05/01 07:10:56;;;;;;;0.50;0.50;;;14.00;98.10;;;;;;4975781;28;20237;-73
2021/05/01 07:13:25;;;;;;;0.40;0.40;;;14.20;98.00;;;;;;4975600;28;20224;-73
2021/05/01 07:15:53;;;;;;;0.40;0.40;;;14.40;97.60;;;;;;4975664;28;20263;-73
2021/05/01 07:18:22;;;;;;;0.60;0.60;;;14.60;96.40;;;;;;4975411;28;20216;-74
2021/05/01 07:20:49;;;;;;;0.50;0.50;;;14.20;96.30;;;;;;4975213;28;20291;-73
2021/05/01 07:23:16;;;;;;;0.50;0.50;;;14.20;97.00;;;;;;4975067;28;20357;-70
2021/05/01 07:25:43;;;;;;;0.60;0.60;;;14.20;96.10;;;;;;4975048;28;20201;-71
2021/05/01 07:28:13;;;;;;;0.50;0.50;;;14.20;96.70;;;;;;4974709;28;20214;-72
2021/05/01 07:30:42;;;;;;;0.55;0.55;;;14.10;95.90;;;;;;4975223;28;20225;-73
2021/05/01 07:33:15;;;;;;;0.52;0.52;;;14.00;95.60;;;;;;4974921;28;20236;-72
2021/05/01 07:35:46;;;;;;;0.60;0.60;;;14.00;96.50;;;;;;4974954;28;20205;-72
2021/05/01 07:38:13;;;;;;;0.50;0.50;;;14.30;96.00;;;;;;4974720;28;20725;-72
2021/05/01 07:40:40;;;;;;;0.50;0.50;;;14.20;95.90;;;;;;4974749;28;20705;-72
2021/05/01 07:43:08;;;;;;;0.50;0.50;;;14.40;95.40;;;;;;4975171;28;20204;-73
2021/05/01 07:45:36;;;;;;;0.50;0.50;;;14.40;94.50;;;;;;4975244;28;20208;-72
2021/05/01 07:48:08;;;;;;;0.50;0.50;;;14.50;94.40;;;;;;4974902;28;20231;-73
2021/05/01 07:50:36;;;;;;;0.55;0.55;;;14.60;94.00;;;;;;4974793;28;20636;-72
2021/05/01 07:53:04;;;;;;;0.50;0.50;;;14.10;94.60;;;;;;4974304;28;20231;-73
2021/05/01 07:55:31;;;;;;;0.50;0.50;;;14.00;95.10;;;;;;4974465;28;20208;-73
2021/05/01 07:57:58;;;;;;;0.40;0.40;;;14.10;94.60;;;;;;4974467;28;20669;-73
2021/05/01 08:00:25;;;;;;;0.60;0.60;;;14.30;99.90;;;;;;4974616;28;20205;-72
2021/05/01 08:02:52;;;;;;;0.50;0.50;;;14.30;93.80;;;;;;4974482;28;20219;-73
2021/05/01 08:05:20;;;;;;;0.50;0.50;;;14.10;94.20;;;;;;4973291;28;20749;-72
2021/05/01 08:07:48;;;;;;;0.50;0.50;;;14.00;94.70;;;;;;4974507;28;20204;-73
2021/05/01 08:10:17;;;;;;;0.50;0.50;;;13.80;99.90;;;;;;4974212;28;20212;-73
2021/05/01 08:12:44;;;;;;;0.60;0.60;;;13.80;93.90;;;;;;4974432;28;20231;-73
2021/05/01 08:15:12;;;;;;;0.50;0.50;;;13.70;94.40;;;;;;4973960;28;20208;-73
2021/05/01 08:17:40;;;;;;;0.52;0.52;;;13.70;94.10;;;;;;4974074;28;20689;-74
2021/05/01 08:20:08;;;;;;;0.50;0.50;;;13.60;94.10;;;;;;4974669;28;20288;-71
2021/05/01 08:22:36;;;;;;;0.50;0.50;;;13.50;94.60;;;;;;4974549;28;20291;-72
2021/05/01 08:25:05;;;;;;;0.60;0.60;;;13.50;95.10;;;;;;4973988;28;20203;-70
2021/05/01 08:27:33;;;;;;;0.50;0.50;;;13.50;95.20;;;;;;4974545;28;20235;-70
2021/05/01 08:30:01;;;;;;;0.50;0.50;;;13.40;95.50;;;;;;4974193;28;20239;-71
2021/05/01 08:32:28;;;;;;;0.60;0.60;;;13.60;95.30;;;;;;4973755;28;20220;-71
2021/05/01 08:34:55;;;;;;;0.50;0.50;;;13.40;95.60;;;;;;4973723;28;20205;-71
2021/05/01 08:37:22;;;;;;;0.50;0.50;;;13.30;95.60;;;;;;4973771;28;20267;-71
2021/05/01 08:39:49;;;;;;;0.50;0.50;;;13.30;95.70;;;;;;4973943;28;20635;-70
2021/05/01 08:42:16;;;;;;;0.50;0.50;;;13.60;95.10;;;;;;4976681;28;20228;-71
2021/05/01 08:44:44;;;;;;;0.50;0.50;;;13.90;94.80;;;;;;4979804;28;20192;-72
2021/05/01 08:47:12;;;;;;;0.60;0.60;;;13.90;94.30;;;;;;4978093;28;20205;-71
2021/05/01 08:49:40;;;;;;;0.50;0.50;;;14.00;94.20;;;;;;4973776;28;20212;-74
2021/05/01 08:52:09;;;;;;;0.50;0.50;;;14.00;94.20;;;;;;4973901;28;20248;-72
2021/05/01 08:54:36;;;;;;;0.57;0.57;;;14.30;93.60;;;;;;4973175;28;20224;-72
2021/05/01 08:57:26;;;;;;;0.52;0.52;;;14.50;93.40;;;;;;4973628;28;20208;-72
2021/05/01 08:59:54;;;;;;;0.50;0.50;;;14.60;92.00;;;;;;4973008;28;20213;-71
2021/05/01 09:02:25;;;;;;;0.50;0.50;;;14.80;92.20;;;;;;4973371;28;20768;-72
2021/05/01 09:04:53;;;;;;;0.50;0.50;;;14.80;92.00;;;;;;4973428;28;20632;-71
2021/05/01 09:07:21;;;;;;;0.50;0.50;;;14.80;91.80;;;;;;4973802;28;20224;-72
2021/05/01 09:09:55;;;;;;;0.50;0.50;;;15.00;91.30;;;;;;4973277;28;20677;-73
2021/05/01 09:12:38;;;;;;;0.50;0.50;;;15.40;91.30;;;;;;4972765;28;20243;-74
2021/05/01 09:15:08;;;;;;;0.50;0.50;;;15.50;90.80;;;;;;4970856;28;20197;-73
2021/05/01 09:17:36;;;;;;;0.50;0.50;;;15.60;90.20;;;;;;4971232;28;20733;-76
2021/05/01 09:20:07;;;;;;;0.40;0.40;;;15.60;90.10;;;;;;4984514;28;20204;-73
2021/05/01 09:22:56;;;;;;;0.50;0.50;;;15.70;90.00;;;;;;4992485;28;20228;-74
2021/05/01 09:25:24;;;;;;;0.50;0.50;;;15.70;89.70;;;;;;4992206;28;20258;-71
2021/05/01 09:28:15;;;;;;;0.40;0.40;;;15.90;90.00;;;;;;4981456;28;20212;-76
2021/05/01 09:30:57;;;;;;;0.40;0.40;;;16.00;88.20;;;;;;4962280;28;20240;-74
2021/05/01 09:33:26;;;;;;;0.50;0.50;;;16.00;87.90;;;;;;4972667;28;20298;-73
2021/05/01 09:35:57;;;;;;;0.40;0.40;;;16.00;87.80;;;;;;4973043;28;20216;-72
2021/05/01 09:38:28;;;;;;;0.50;0.50;;;16.10;87.80;;;;;;4972879;28;20244;-72
2021/05/01 09:40:55;;;;;;;0.40;0.40;;;16.10;85.60;;;;;;4972933;28;20233;-71
2021/05/01 09:43:22;;;;;;;0.50;0.50;;;15.90;86.90;;;;;;4972678;28;20259;-71
2021/05/01 09:45:50;;;;;;;0.40;0.40;;;15.30;88.90;;;;;;4972640;28;20209;-74
2021/05/01 09:48:18;;;;;;;0.50;0.50;;;15.30;90.00;;;;;;4973120;28;20286;-71
2021/05/01 09:50:47;;;;;;;0.40;0.40;;;15.60;88.50;;;;;;4973188;28;20248;-71
2021/05/01 09:53:17;;;;;;;0.40;0.40;;;15.90;86.00;;;;;;4972682;28;20275;-71
2021/05/01 09:55:47;;;;;;;0.57;0.57;;;16.00;84.90;;;;;;4972614;28;20674;-70
2021/05/01 09:58:16;;;;;;;0.40;0.40;;;15.50;88.00;;;;;;4972758;28;20208;-71
2021/05/01 10:00:44;;;;;;;0.50;0.50;;;;;;;;;;4972954;28;20225;-72
2021/05/01 10:03:23;;;;;;;0.30;0.30;;;16.50;85.20;;;;;;4986251;28;20203;-72
2021/05/01 10:05:51;;;;;;;0.40;0.40;;;16.90;83.70;;;;;;4982467;28;20204;-72
2021/05/01 10:08:20;;;;;;;0.40;0.40;;;17.10;81.20;;;;;;4992605;28;20210;-74
2021/05/01 10:10:50;;;;;;;0.30;0.30;;;17.20;81.70;;;;;;4975555;28;20232;-72
2021/05/01 10:13:47;;;;;;;0.47;0.47;;;17.40;81.00;;;;;;4970362;28;20276;-72
2021/05/01 10:16:15;;;;;;;0.40;0.40;;;17.30;79.90;;;;;;4976718;28;20258;-71
2021/05/01 10:19:03;;;;;;;0.50;0.50;;;17.00;80.00;;;;;;4975307;28;20205;-71
2021/05/01 10:21:30;;;;;;;0.40;0.40;;;17.00;79.80;;;;;;4981614;28;20230;-75
2021/05/01 10:23:57;;;;;;;0.50;0.50;;;17.00;80.30;;;;;;4985797;28;20203;-77
2021/05/01 10:26:24;;;;;;;0.40;0.40;;;17.00;80.60;;;;;;4990605;28;20220;-74
2021/05/01 10:28:55;;;;;;;0.40;0.40;;;16.90;80.30;;;;;;4975864;28;20215;-74
2021/05/01 10:31:23;;;;;;;0.30;0.30;;;16.90;80.30;;;;;;4988369;28;20235;-78
2021/05/01 10:33:52;;;;;;;0.40;0.40;;;16.80;79.90;;;;;;4991978;28;20215;-74
2021/05/01 10:36:26;;;;;;;0.40;0.40;;;16.20;80.50;;;;;;4994482;28;20252;-80
2021/05/01 10:38:59;;;;;;;0.50;0.50;;;16.30;81.80;;;;;;4988861;28;20247;-77
2021/05/01 10:41:29;;;;;;;0.40;0.40;;;16.40;80.80;;;;;;4985929;28;20225;-75
2021/05/01 10:43:58;;;;;;;0.50;0.50;;;16.40;81.30;;;;;;4982048;28;20200;-77
2021/05/01 10:46:27;;;;;;;0.40;0.40;;;16.60;81.30;;;;;;4986160;28;20208;-76
2021/05/01 10:48:57;;;;;;;0.40;0.40;;;16.80;80.60;;;;;;4982897;28;20269;-76
2021/05/01 10:51:25;;;;;;;0.40;0.40;;;16.90;80.30;;;;;;4988121;28;20216;-76
2021/05/01 10:54:08;;;;;;;0.40;0.40;;;16.70;80.40;;;;;;4980896;28;20650;-76
2021/05/01 10:56:35;;;;;;;0.30;0.30;;;17.10;79.40;;;;;;4981910;28;20567;-76
2021/05/01 10:59:07;;;;;;;0.40;0.40;;;17.10;79.40;;;;;;4986429;28;20196;-75
2021/05/01 11:01:37;;;;;;;0.40;0.40;;;17.40;77.20;;;;;;4982184;28;20287;-76
2021/05/01 11:04:07;;;;;;;0.50;0.50;;;17.20;78.40;;;;;;4989562;28;20204;-76
2021/05/01 11:06:41;;;;;;;0.40;0.40;;;17.20;77.40;;;;;;4985221;28;20229;-75
2021/05/01 11:09:09;;;;;;;0.40;0.40;;;16.70;78.20;;;;;;4974978;28;20200;-76
2021/05/01 11:11:39;;;;;;;0.43;0.43;;;16.60;79.30;;;;;;4975455;28;20279;-77
2021/05/01 11:14:14;;;;;;;0.40;0.40;;;16.80;78.70;;;;;;4975484;28;20236;-75
2021/05/01 11:16:45;;;;;;;0.47;0.47;;;17.10;78.70;;;;;;4975384;28;20208;-74
2021/05/01 11:19:14;;;;;;;0.35;0.35;;;17.20;78.50;;;;;;4977023;28;20218;-75
2021/05/01 11:21:46;;;;;;;0.35;0.35;;;17.20;79.40;;;;;;4975900;28;20225;-73
2021/05/01 11:24:14;;;;;;;0.40;0.40;;;17.30;79.00;;;;;;4992774;28;20700;-74
2021/05/01 11:26:46;;;;;;;0.32;0.32;;;17.40;78.30;;;;;;4995091;28;20626;-77
2021/05/01 11:29:16;;;;;;;0.30;0.30;;;16.80;78.60;;;;;;4995166;28;20208;-77
2021/05/01 11:31:44;;;;;;;0.40;0.40;;;17.10;78.10;;;;;;4985440;28;20263;-78
2021/05/01 11:34:14;;;;;;;0.40;0.40;;;17.10;79.70;;;;;;4983585;28;20351;-77
2021/05/01 11:36:45;;;;;;;0.40;0.40;;;17.40;78.30;;;;;;4984792;28;20196;-79
2021/05/01 11:39:14;;;;;;;0.40;0.40;;;17.30;77.40;;;;;;4982402;28;20200;-77
2021/05/01 11:41:44;;;;;;;0.40;0.40;;;16.80;78.40;;;;;;4983064;28;20289;-78
2021/05/01 11:44:12;;;;;;;0.40;0.40;;;16.90;78.30;;;;;;4989644;28;20195;-78
2021/05/01 11:46:48;;;;;;;0.30;0.30;;;17.00;78.00;;;;;;4987885;28;20612;-77
2021/05/01 11:49:18;;;;;;;0.40;0.40;;;17.00;77.90;;;;;;4986975;28;20222;-80
2021/05/01 11:52:14;;;;;;;0.40;0.40;;;17.10;78.30;;;;;;4978442;28;20632;-78
2021/05/01 11:55:02;;;;;;;0.50;0.50;;;17.20;77.90;;;;;;4966270;28;20224;-76
2021/05/01 11:57:36;;;;;;;0.30;0.30;;;17.50;77.20;;;;;;4977630;28;20216;-78
2021/05/01 12:00:06;;;;;;;0.30;0.30;;;17.60;75.90;;;;;;4976282;28;20211;-78
2021/05/01 12:02:38;;;;;;;0.40;0.40;;;17.40;76.10;;;;;;4981423;28;20216;-75
2021/05/01 12:05:11;;;;;;;0.40;0.40;;;17.10;77.50;;;;;;4984388;28;20196;-78
2021/05/01 12:07:44;;;;;;;0.40;0.40;;;16.70;78.20;;;;;;4983344;28;20262;-77
2021/05/01 12:10:13;;;;;;;0.30;0.30;;;16.80;78.90;;;;;;4983560;28;20196;-75
2021/05/01 12:12:42;;;;;;;0.40;0.40;;;16.90;78.20;;;;;;4985374;28;20200;-78
2021/05/01 12:15:13;;;;;;;0.30;0.30;;;17.00;78.80;;;;;;4983668;28;20230;-76
2021/05/01 12:17:50;;;;;;;0.40;0.40;;;17.50;77.90;;;;;;4983783;28;20216;-76
2021/05/01 12:20:19;;;;;;;0.38;0.38;;;17.30;94.30;;;;;;4983891;28;20231;-76
2021/05/01 12:22:53;;;;;;;0.32;0.32;;;17.20;76.50;;;;;;4983218;28;20204;-76
2021/05/01 12:25:35;;;;;;;0.40;0.40;;;17.20;77.10;;;;;;4985440;28;20207;-76
2021/05/01 12:28:03;;;;;;;0.50;0.50;;;17.30;76.40;;;;;;4984196;28;20200;-77
2021/05/01 12:31:02;;;;;;;0.40;0.40;;;17.60;93.90;;;;;;4983115;28;20212;-77
2021/05/01 12:33:51;;;;;;;0.30;0.30;;;17.50;75.60;;;;;;4984486;28;20231;-74
2021/05/01 12:36:25;;;;;;;0.40;0.40;;;17.40;76.20;;;;;;4982811;28;20205;-75
2021/05/01 12:38:54;;;;;;;0.40;0.40;;;17.60;76.00;;;;;;4982452;28;20203;-75
2021/05/01 12:41:38;;;;;;;0.40;0.40;;;17.70;75.80;;;;;;4984602;28;20223;-76
2021/05/01 12:44:05;;;;;;;0.30;0.30;;;17.80;75.40;;;;;;4983683;28;20259;-76
2021/05/01 12:46:54;;;;;;;0.32;0.32;;;17.70;75.50;;;;;;4983413;28;20200;-77
2021/05/01 12:49:27;;;;;;;0.30;0.30;;;17.80;75.10;;;;;;4985454;28;20251;-77
2021/05/01 12:52:06;;;;;;;0.30;0.30;;;17.90;76.00;;;;;;4987908;28;20228;-75
2021/05/01 12:54:36;;;;;;;0.30;0.30;;;18.00;75.10;;;;;;4993804;28;20216;-76
2021/05/01 12:57:06;;;;;;;0.30;0.30;;;17.90;75.80;;;;;;4989329;28;20294;-76
2021/05/01 12:59:40;;;;;;;0.32;0.32;;;18.10;75.10;;;;;;4993340;28;20231;-76
2021/05/01 13:02:19;;;;;;;0.30;0.30;;;17.90;73.60;;;;;;4995228;28;20268;-77
2021/05/01 13:05:13;;;;;;;0.30;0.30;;;17.80;74.50;;;;;;4994175;28;20231;-77
2021/05/01 13:07:43;;;;;;;0.40;0.40;;;17.70;75.10;;;;;;4995374;28;20273;-76
2021/05/01 13:10:12;;;;;;;0.40;0.40;;;17.30;75.30;;;;;;4995659;28;20204;-76
2021/05/01 13:12:51;;;;;;;0.45;0.45;;;17.20;76.80;;;;;;4993936;28;20254;-77
2021/05/01 13:15:19;;;;;;;0.30;0.30;;;17.30;76.30;;;;;;4994754;28;20220;-76
2021/05/01 13:18:05;;;;;;;0.30;0.30;;;17.30;75.20;;;;;;4993802;28;20204;-77
2021/05/01 13:20:32;;;;;;;0.40;0.40;;;17.20;76.40;;;;;;4993822;28;20533;-77
2021/05/01 13:23:01;;;;;;;0.40;0.40;;;17.10;76.40;;;;;;4994910;28;20204;-76
2021/05/01 13:25:32;;;;;;;0.40;0.40;;;17.20;76.90;;;;;;4993773;28;20282;-77
2021/05/01 13:28:06;;;;;;;0.40;0.40;;;17.40;75.60;;;;;;4995309;28;20208;-78
2021/05/01 13:30:33;;;;;;;0.35;0.35;;;17.30;76.00;;;;;;4993701;28;20274;-75
2021/05/01 13:33:02;;;;;;;0.30;0.30;;;17.30;75.90;;;;;;4994465;28;20840;-76
2021/05/01 13:35:31;;;;;;;0.30;0.30;;;17.30;75.90;;;;;;4994225;28;20295;-76
2021/05/01 13:37:59;;;;;;;0.30;0.30;;;17.30;75.50;;;;;;4996061;28;20203;-77
2021/05/01 13:40:28;;;;;;;0.30;0.30;;;17.30;74.70;;;;;;4992585;28;20217;-77
2021/05/01 13:42:56;;;;;;;0.38;0.38;;;17.20;74.80;;;;;;4988703;28;20204;-77
2021/05/01 13:45:25;;;;;;;0.30;0.30;;;17.50;74.60;;;;;;4973384;28;20205;-76
2021/05/01 13:47:52;;;;;;;0.30;0.30;;;17.80;74.50;;;;;;4973608;28;20259;-76
2021/05/01 13:50:22;;;;;;;0.30;0.30;;;17.90;93.80;;;;;;4973582;28;20300;-76
2021/05/01 13:52:51;;;;;;;0.30;0.30;;;17.90;74.10;;;;;;4973638;28;20662;-74
2021/05/01 13:55:24;;;;;;;0.40;0.40;;;17.80;73.00;;;;;;4973756;28;20291;-74
2021/05/01 13:57:53;;;;;;;0.20;0.20;;;17.80;73.90;;;;;;4976355;28;20208;-75
2021/05/01 14:00:23;;;;;;;0.30;0.30;;;17.70;93.50;;;;;;4985092;28;20193;-76
2021/05/01 14:02:52;;;;;;;0.40;0.40;;;17.70;73.00;;;;;;4979491;28;20200;-77
2021/05/01 14:05:22;;;;;;;0.40;0.40;;;17.80;73.20;;;;;;4977424;28;20566;-77
2021/05/01 14:07:51;;;;;;;0.40;0.40;;;17.80;72.90;;;;;;4979920;28;20212;-78
2021/05/01 14:10:21;;;;;;;0.43;0.43;;;17.80;93.70;;;;;;4978691;28;20674;-76
2021/05/01 14:12:49;;;;;;;0.30;0.30;;;17.70;73.50;;;;;;4977329;28;20208;-76
2021/05/01 14:15:18;;;;;;;0.30;0.30;;;17.70;73.00;;;;;;4976106;28;20741;-75
2021/05/01 14:17:45;;;;;;;0.40;0.40;;;17.70;73.10;;;;;;4976389;28;20205;-77
2021/05/01 14:20:15;;;;;;;0.30;0.30;;;16.80;73.00;;;;;;4976169;28;20709;-75
2021/05/01 14:22:47;;;;;;;0.40;0.40;;;17.40;73.90;;;;;;4976606;28;20205;-74
2021/05/01 14:25:15;;;;;;;0.30;0.30;;;17.40;74.90;;;;;;4976613;28;20201;-77
2021/05/01 14:27:48;;;;;;;0.30;0.30;;;17.40;75.10;;;;;;4976317;28;20609;-76
2021/05/01 14:30:24;;;;;;;0.30;0.30;;;17.20;94.30;;;;;;4975893;28;20697;-75
2021/05/01 14:32:50;;;;;;;0.30;0.30;;;17.20;75.60;;;;;;4976378;28;20204;-78
2021/05/01 14:35:18;;;;;;;0.40;0.40;;;17.10;77.10;;;;;;4975664;28;20220;-76
2021/05/01 14:37:45;;;;;;;0.40;0.40;;;17.00;77.20;;;;;;4975834;28;20205;-75
2021/05/01 14:40:13;;;;;;;0.40;0.40;;;17.10;77.60;;;;;;4975894;28;20200;-75
2021/05/01 14:42:51;;;;;;;0.40;0.40;;;17.00;77.60;;;;;;4975778;28;20372;-74
2021/05/01 14:45:24;;;;;;;0.40;0.40;;;17.00;76.40;;;;;;4976363;28;20246;-76
2021/05/01 14:47:52;;;;;;;0.40;0.40;;;16.90;77.20;;;;;;4977143;28;20688;-75
2021/05/01 14:50:28;;;;;;;0.30;0.30;;;16.60;96.00;;;;;;4976061;28;20204;-74
2021/05/01 14:53:09;;;;;;;0.50;0.50;;;16.70;77.80;;;;;;4976221;28;20732;-74
2021/05/01 14:55:36;;;;;;;0.40;0.40;;;16.60;78.70;;;;;;4975686;28;20286;-74
2021/05/01 14:58:04;;;;;;;0.40;0.40;;;16.50;79.00;;;;;;4974990;28;20204;-72
2021/05/01 15:00:31;;;;;;;0.40;0.40;;;16.40;97.80;;;;;;4975828;28;20259;-74
2021/05/01 15:02:59;;;;;;;0.40;0.40;;;16.40;81.40;;;;;;4976080;28;20231;-73
2021/05/01 15:05:26;;;;;;;0.30;0.30;;;16.40;80.60;;;;;;4973850;28;20212;-76
2021/05/01 15:07:55;;;;;;;0.40;0.40;;;16.20;81.20;;;;;;4973784;28;20212;-72
2021/05/01 15:10:24;;;;;;;0.30;0.30;;;16.50;97.70;;;;;;4973702;28;20212;-71
2021/05/01 15:12:57;;;;;;;0.30;0.30;;;16.40;81.20;;;;;;4975368;28;20204;-73
2021/05/01 15:15:41;;;;;;;0.50;0.50;;;16.40;81.80;;;;;;4975005;28;20252;-75
2021/05/01 15:18:26;;;;;;;0.30;0.30;;;16.30;81.20;;;;;;4975123;28;20217;-75
2021/05/01 15:20:56;;;;;;;0.40;0.40;;;16.20;81.70;;;;;;4973765;28;20332;-73
2021/05/01 15:23:25;;;;;;;0.45;0.45;;;16.10;82.30;;;;;;4975018;28;20204;-75
2021/05/01 15:25:54;;;;;;;0.40;0.40;;;16.10;85.90;;;;;;4975292;28;20263;-74
2021/05/01 15:28:23;;;;;;;0.38;0.38;;;16.00;82.90;;;;;;4983474;28;20625;-76
2021/05/01 15:30:51;;;;;;;0.50;0.50;;;15.90;83.70;;;;;;4989398;28;20634;-74
2021/05/01 15:33:24;;;;;;;0.40;0.40;;;15.90;85.90;;;;;;4979284;28;20201;-75
2021/05/01 15:35:50;;;;;;;0.40;0.40;;;15.80;86.40;;;;;;4974704;28;20279;-75
2021/05/01 15:38:17;;;;;;;0.50;0.50;;;15.70;87.30;;;;;;4974785;28;20811;-76
2021/05/01 15:40:48;;;;;;;0.50;0.50;;;15.60;87.90;;;;;;4974741;28;20592;-75
2021/05/01 15:43:15;;;;;;;0.40;0.40;;;15.60;88.10;;;;;;4974832;28;20275;-75
2021/05/01 15:45:45;;;;;;;0.50;0.50;;;15.60;88.60;;;;;;4974817;28;20193;-75
2021/05/01 15:48:12;;;;;;;0.40;0.40;;;15.70;88.20;;;;;;4990945;28;20211;-72
2021/05/01 15:50:42;;;;;;;0.50;0.50;;;15.60;88.40;;;;;;4994137;28;20223;-75
2021/05/01 15:53:11;;;;;;;0.50;0.50;;;15.50;89.00;;;;;;4993601;28;20559;-75
2021/05/01 15:55:39;;;;;;;0.40;0.40;;;15.40;89.30;;;;;;4994151;28;20231;-75
2021/05/01 15:58:08;;;;;;;0.50;0.50;;;15.30;90.00;;;;;;4994030;28;20576;-75
2021/05/01 16:00:36;;;;;;;0.40;0.40;;;15.20;90.00;;;;;;4993886;28;20348;-74
2021/05/01 16:03:03;;;;;;;0.50;0.50;;;15.10;90.10;;;;;;4993595;28;20211;-75
2021/05/01 16:05:32;;;;;;;0.50;0.50;;;15.30;90.50;;;;;;4994153;28;20200;-77
2021/05/01 16:07:59;;;;;;;0.50;0.50;;;15.20;90.20;;;;;;4993860;28;20282;-76
2021/05/01 16:10:28;;;;;;;0.47;0.47;;;15.20;90.30;;;;;;4994238;28;20204;-76
2021/05/01 16:12:57;;;;;;;0.40;0.40;;;15.10;90.40;;;;;;4993829;28;20211;-73
2021/05/01 16:15:26;;;;;;;0.40;0.40;;;15.20;90.50;;;;;;4993645;28;20696;-77
2021/05/01 16:17:54;;;;;;;0.40;0.40;;;15.20;90.20;;;;;;4998928;28;20286;-76
2021/05/01 16:20:23;;;;;;;0.50;0.50;;;15.30;90.60;;;;;;5009207;28;20215;-77
2021/05/01 16:22:53;;;;;;;0.50;0.50;;;15.20;90.50;;;;;;5008010;28;20291;-77
2021/05/01 16:25:22;;;;;;;0.50;0.50;;;15.10;91.00;;;;;;4994243;28;20554;-76
2021/05/01 16:27:49;;;;;;;0.50;0.50;;;15.20;91.90;;;;;;4993297;28;20203;-77
2021/05/01 16:30:17;;;;;;;0.50;0.50;;;15.20;92.80;;;;;;4993716;28;20212;-76
2021/05/01 16:32:44;;;;;;;0.40;0.40;;;15.30;92.80;;;;;;4993363;28;20561;-72
2021/05/01 16:35:12;;;;;;;0.30;0.30;;;15.30;93.90;;;;;;4993427;28;20224;-74
2021/05/01 16:37:40;;;;;;;0.50;0.50;;;15.30;94.40;;;;;;4993495;28;20204;-73
2021/05/01 16:40:10;;;;;;;0.50;0.50;;;15.40;93.30;;;;;;4993522;28;20613;-72
2021/05/01 16:42:38;;;;;;;0.40;0.40;;;15.30;92.40;;;;;;4993177;28;20228;-72
2021/05/01 16:45:13;;;;;;;0.50;0.50;;;15.20;92.50;;;;;;4993162;28;20188;-73
2021/05/01 16:47:40;;;;;;;0.60;0.60;;;15.30;92.70;;;;;;4993209;28;20204;-73
2021/05/01 16:50:08;;;;;;;0.50;0.50;;;15.20;93.00;;;;;;4993108;28;20206;-70
2021/05/01 16:52:35;;;;;;;0.50;0.50;;;15.20;93.20;;;;;;4992903;28;20228;-74
2021/05/01 16:55:04;;;;;;;0.50;0.50;;;15.10;99.40;;;;;;4992588;28;20641;-72
2021/05/01 16:57:31;;;;;;;0.50;0.50;;;15.00;91.00;;;;;;4992861;28;20266;-70
2021/05/01 16:59:58;;;;;;;0.40;0.40;;;14.90;91.20;;;;;;4988788;28;20247;-73
2021/05/01 17:02:25;;;;;;;0.50;0.50;;;14.80;93.10;;;;;;4981048;28;20228;-72
2021/05/01 17:04:53;;;;;;;0.50;0.50;;;14.70;96.10;;;;;;4981675;28;20279;-72
2021/05/01 17:07:20;;;;;;;0.50;0.50;;;14.90;95.80;;;;;;4992829;28;20254;-72
2021/05/01 17:09:47;;;;;;;0.40;0.40;;;15.00;95.70;;;;;;4992237;28;20200;-72
2021/05/01 17:12:14;;;;;;;0.50;0.50;;;14.80;91.90;;;;;;4992667;28;20243;-71